sensor_id;sensor_type;location;lat;lon;timestamp;P1;durP1;ratioP1;P2;durP2;ratioP2
22837;SDS011;11585;51.450;-0.240;2023-05-08T00:01:18;21.67;;;8.93;;
22837;SDS011;11585;51.450;-0.240;2023-05-08T00:03:43;21.58;;;8.15;;
22837;SDS011;11585;51.450;-0.240;2023-05-08T00:06:09;18.65;;;9.00;;
22837;SDS011;11585;51.450;-0.240;2023-05-08T00:11:57;16.92;;;7.60;;
22837;SDS011;11585;51.450;-0.240;2023-05-08T00:14:22;21.02;;;8.55;;
22837;SDS011;11585;51.450;-0.240;2023-05-08T00:16:48;15.65;;;7.40;;
22837;SDS011;11585;51.450;-0.240;2023-05-08T00:22:00;18.75;;;8.38;;
22837;SDS011;11585;51.450;-0.240;2023-05-08T00:24:26;19.30;;;8.90;;
22837;SDS011;11585;51.450;-0.240;2023-05-08T00:26:51;16.17;;;7.80;;
22837;SDS011;11585;51.450;-0.240;2023-05-08T00:32:22;22.85;;;8.57;;
22837;SDS011;11585;51.450;-0.240;2023-05-08T00:34:48;20.48;;;8.95;;
22837;SDS011;11585;51.450;-0.240;2023-05-08T00:37:13;13.95;;;7.03;;
22837;SDS011;11585;51.450;-0.240;2023-05-08T00:46:23;15.18;;;6.93;;
22837;SDS011;11585;51.450;-0.240;2023-05-08T00:48:50;15.02;;;6.68;;
22837;SDS011;11585;51.450;-0.240;2023-05-08T00:51:15;17.88;;;7.50;;
22837;SDS011;11585;51.450;-0.240;2023-05-08T00:53:42;16.00;;;7.28;;
22837;SDS011;11585;51.450;-0.240;2023-05-08T00:56:09;22.45;;;7.20;;
22837;SDS011;11585;51.450;-0.240;2023-05-08T00:58:38;13.63;;;7.18;;
22837;SDS011;11585;51.450;-0.240;2023-05-08T01:01:06;15.45;;;7.00;;
22837;SDS011;11585;51.450;-0.240;2023-05-08T01:03:32;20.33;;;6.93;;
22837;SDS011;11585;51.450;-0.240;2023-05-08T01:06:00;17.00;;;7.40;;
22837;SDS011;11585;51.450;-0.240;2023-05-08T01:16:51;17.05;;;6.90;;
22837;SDS011;11585;51.450;-0.240;2023-05-08T01:43:38;14.02;;;6.95;;
22837;SDS011;11585;51.450;-0.240;2023-05-08T01:46:12;19.15;;;7.03;;
22837;SDS011;11585;51.450;-0.240;2023-05-08T01:51:52;14.88;;;7.60;;
22837;SDS011;11585;51.450;-0.240;2023-05-08T01:54:24;13.65;;;6.65;;
22837;SDS011;11585;51.450;-0.240;2023-05-08T01:56:55;15.48;;;6.57;;
22837;SDS011;11585;51.450;-0.240;2023-05-08T01:59:24;13.23;;;6.18;;
22837;SDS011;11585;51.450;-0.240;2023-05-08T02:01:53;15.20;;;7.20;;
22837;SDS011;11585;51.450;-0.240;2023-05-08T02:04:21;14.73;;;6.35;;
22837;SDS011;11585;51.450;-0.240;2023-05-08T02:06:48;18.48;;;7.10;;
22837;SDS011;11585;51.450;-0.240;2023-05-08T02:12:05;16.33;;;6.18;;
22837;SDS011;11585;51.450;-0.240;2023-05-08T02:14:33;16.10;;;6.43;;
22837;SDS011;11585;51.450;-0.240;2023-05-08T02:17:01;19.95;;;6.63;;
22837;SDS011;11585;51.450;-0.240;2023-05-08T02:22:01;11.23;;;5.85;;
22837;SDS011;11585;51.450;-0.240;2023-05-08T02:24:27;13.50;;;5.78;;
22837;SDS011;11585;51.450;-0.240;2023-05-08T02:26:56;14.67;;;6.47;;
22837;SDS011;11585;51.450;-0.240;2023-05-08T02:32:28;18.23;;;6.53;;
22837;SDS011;11585;51.450;-0.240;2023-05-08T02:34:56;16.05;;;6.25;;
22837;SDS011;11585;51.450;-0.240;2023-05-08T02:37:21;19.33;;;6.47;;
22837;SDS011;11585;51.450;-0.240;2023-05-08T02:39:51;18.50;;;6.20;;
22837;SDS011;11585;51.450;-0.240;2023-05-08T02:42:20;14.20;;;5.72;;
22837;SDS011;11585;51.450;-0.240;2023-05-08T02:44:46;11.85;;;5.78;;
22837;SDS011;11585;51.450;-0.240;2023-05-08T02:47:18;15.68;;;5.20;;
22837;SDS011;11585;51.450;-0.240;2023-05-08T02:52:43;13.98;;;6.00;;
22837;SDS011;11585;51.450;-0.240;2023-05-08T02:55:21;15.95;;;5.93;;
22837;SDS011;11585;51.450;-0.240;2023-05-08T03:01:19;13.13;;;5.55;;
22837;SDS011;11585;51.450;-0.240;2023-05-08T03:04:01;12.73;;;5.97;;
22837;SDS011;11585;51.450;-0.240;2023-05-08T03:06:36;14.57;;;5.43;;
22837;SDS011;11585;51.450;-0.240;2023-05-08T03:12:27;17.58;;;6.25;;
22837;SDS011;11585;51.450;-0.240;2023-05-08T03:15:01;16.90;;;6.90;;
22837;SDS011;11585;51.450;-0.240;2023-05-08T03:17:34;15.35;;;6.00;;
22837;SDS011;11585;51.450;-0.240;2023-05-08T03:23:23;16.08;;;6.05;;
22837;SDS011;11585;51.450;-0.240;2023-05-08T03:25:50;11.10;;;5.80;;
22837;SDS011;11585;51.450;-0.240;2023-05-08T03:31:04;16.73;;;6.20;;
22837;SDS011;11585;51.450;-0.240;2023-05-08T03:33:31;16.20;;;6.03;;
22837;SDS011;11585;51.450;-0.240;2023-05-08T03:35:58;10.60;;;5.35;;
22837;SDS011;11585;51.450;-0.240;2023-05-08T03:38:24;13.73;;;6.57;;
22837;SDS011;11585;51.450;-0.240;2023-05-08T03:40:50;14.60;;;6.55;;
22837;SDS011;11585;51.450;-0.240;2023-05-08T03:43:15;13.05;;;5.78;;
22837;SDS011;11585;51.450;-0.240;2023-05-08T03:45:43;13.13;;;5.97;;
22837;SDS011;11585;51.450;-0.240;2023-05-08T03:51:13;16.67;;;6.47;;
22837;SDS011;11585;51.450;-0.240;2023-05-08T03:53:40;11.63;;;5.68;;
22837;SDS011;11585;51.450;-0.240;2023-05-08T03:56:06;16.00;;;5.60;;
22837;SDS011;11585;51.450;-0.240;2023-05-08T04:01:58;14.15;;;5.55;;
22837;SDS011;11585;51.450;-0.240;2023-05-08T04:13:17;14.88;;;5.18;;
22837;SDS011;11585;51.450;-0.240;2023-05-08T04:15:51;21.02;;;5.50;;
22837;SDS011;11585;51.450;-0.240;2023-05-08T04:21:23;14.95;;;5.68;;
22837;SDS011;11585;51.450;-0.240;2023-05-08T04:23:50;10.80;;;5.95;;
22837;SDS011;11585;51.450;-0.240;2023-05-08T04:26:17;11.38;;;5.25;;
22837;SDS011;11585;51.450;-0.240;2023-05-08T04:28:43;15.43;;;5.45;;
22837;SDS011;11585;51.450;-0.240;2023-05-08T04:31:14;10.73;;;4.90;;
22837;SDS011;11585;51.450;-0.240;2023-05-08T04:33:44;10.60;;;5.13;;
22837;SDS011;11585;51.450;-0.240;2023-05-08T04:36:10;13.23;;;5.75;;
22837;SDS011;11585;51.450;-0.240;2023-05-08T04:41:59;15.18;;;5.43;;
22837;SDS011;11585;51.450;-0.240;2023-05-08T04:47:33;11.30;;;5.38;;
22837;SDS011;11585;51.450;-0.240;2023-05-08T04:53:22;13.50;;;5.68;;
22837;SDS011;11585;51.450;-0.240;2023-05-08T04:59:10;8.80;;;4.97;;
22837;SDS011;11585;51.450;-0.240;2023-05-08T05:01:35;15.80;;;5.65;;
22837;SDS011;11585;51.450;-0.240;2023-05-08T05:04:01;16.17;;;5.45;;
22837;SDS011;11585;51.450;-0.240;2023-05-08T05:06:26;12.70;;;5.10;;
22837;SDS011;11585;51.450;-0.240;2023-05-08T05:12:14;16.73;;;4.90;;
22837;SDS011;11585;51.450;-0.240;2023-05-08T05:14:40;11.88;;;4.85;;
22837;SDS011;11585;51.450;-0.240;2023-05-08T05:17:06;9.27;;;4.55;;
22837;SDS011;11585;51.450;-0.240;2023-05-08T05:22:54;13.13;;;4.57;;
22837;SDS011;11585;51.450;-0.240;2023-05-08T05:28:42;11.73;;;4.15;;
22837;SDS011;11585;51.450;-0.240;2023-05-08T05:31:07;11.98;;;4.82;;
22837;SDS011;11585;51.450;-0.240;2023-05-08T05:33:34;8.50;;;4.38;;
22837;SDS011;11585;51.450;-0.240;2023-05-08T05:35:59;9.15;;;4.10;;
22837;SDS011;11585;51.450;-0.240;2023-05-08T05:38:26;9.35;;;4.55;;
22837;SDS011;11585;51.450;-0.240;2023-05-08T05:40:52;10.73;;;4.43;;
22837;SDS011;11585;51.450;-0.240;2023-05-08T05:43:17;10.10;;;4.72;;
22837;SDS011;11585;51.450;-0.240;2023-05-08T05:45:43;8.90;;;4.47;;
22837;SDS011;11585;51.450;-0.240;2023-05-08T05:48:09;9.88;;;4.25;;
22837;SDS011;11585;51.450;-0.240;2023-05-08T05:50:35;11.98;;;4.75;;
22837;SDS011;11585;51.450;-0.240;2023-05-08T05:53:01;7.20;;;4.10;;
22837;SDS011;11585;51.450;-0.240;2023-05-08T05:55:27;8.20;;;4.35;;
22837;SDS011;11585;51.450;-0.240;2023-05-08T06:00:57;14.07;;;4.70;;
22837;SDS011;11585;51.450;-0.240;2023-05-08T06:03:25;10.07;;;3.95;;
22837;SDS011;11585;51.450;-0.240;2023-05-08T06:05:50;10.07;;;4.65;;
22837;SDS011;11585;51.450;-0.240;2023-05-08T06:08:18;16.17;;;4.43;;
22837;SDS011;11585;51.450;-0.240;2023-05-08T06:10:44;8.90;;;4.15;;
22837;SDS011;11585;51.450;-0.240;2023-05-08T06:13:09;13.15;;;4.10;;
22837;SDS011;11585;51.450;-0.240;2023-05-08T06:15:35;8.05;;;4.25;;
22837;SDS011;11585;51.450;-0.240;2023-05-08T06:20:46;8.70;;;4.30;;
22837;SDS011;11585;51.450;-0.240;2023-05-08T06:23:12;8.55;;;4.00;;
22837;SDS011;11585;51.450;-0.240;2023-05-08T06:25:38;7.47;;;3.50;;
22837;SDS011;11585;51.450;-0.240;2023-05-08T06:30:50;7.40;;;3.70;;
22837;SDS011;11585;51.450;-0.240;2023-05-08T06:33:16;7.97;;;3.80;;
22837;SDS011;11585;51.450;-0.240;2023-05-08T06:35:45;7.78;;;3.22;;
22837;SDS011;11585;51.450;-0.240;2023-05-08T06:41:34;8.00;;;3.63;;
22837;SDS011;11585;51.450;-0.240;2023-05-08T06:43:59;9.00;;;3.10;;
22837;SDS011;11585;51.450;-0.240;2023-05-08T06:46:25;7.90;;;3.05;;
22837;SDS011;11585;51.450;-0.240;2023-05-08T06:48:53;9.15;;;3.47;;
22837;SDS011;11585;51.450;-0.240;2023-05-08T06:51:18;10.02;;;3.92;;
22837;SDS011;11585;51.450;-0.240;2023-05-08T06:53:47;8.70;;;3.72;;
22837;SDS011;11585;51.450;-0.240;2023-05-08T06:56:12;9.30;;;3.95;;
22837;SDS011;11585;51.450;-0.240;2023-05-08T07:01:41;6.75;;;3.88;;
22837;SDS011;11585;51.450;-0.240;2023-05-08T07:04:07;9.48;;;5.13;;
22837;SDS011;11585;51.450;-0.240;2023-05-08T07:06:33;9.23;;;4.85;;
22837;SDS011;11585;51.450;-0.240;2023-05-08T07:09:01;17.15;;;6.40;;
22837;SDS011;11585;51.450;-0.240;2023-05-08T07:11:26;11.40;;;5.97;;
22837;SDS011;11585;51.450;-0.240;2023-05-08T07:13:52;16.45;;;7.25;;
22837;SDS011;11585;51.450;-0.240;2023-05-08T07:16:18;14.20;;;7.03;;
22837;SDS011;11585;51.450;-0.240;2023-05-08T07:18:45;16.85;;;7.40;;
22837;SDS011;11585;51.450;-0.240;2023-05-08T07:21:10;16.77;;;7.47;;
22837;SDS011;11585;51.450;-0.240;2023-05-08T07:23:36;17.80;;;8.25;;
22837;SDS011;11585;51.450;-0.240;2023-05-08T07:26:02;17.38;;;8.48;;
22837;SDS011;11585;51.450;-0.240;2023-05-08T07:31:32;18.70;;;8.70;;
22837;SDS011;11585;51.450;-0.240;2023-05-08T07:33:58;18.02;;;8.55;;
22837;SDS011;11585;51.450;-0.240;2023-05-08T07:36:23;14.63;;;8.15;;
22837;SDS011;11585;51.450;-0.240;2023-05-08T07:38:50;16.08;;;7.60;;
22837;SDS011;11585;51.450;-0.240;2023-05-08T07:41:16;16.73;;;8.52;;
22837;SDS011;11585;51.450;-0.240;2023-05-08T07:43:41;17.17;;;7.07;;
22837;SDS011;11585;51.450;-0.240;2023-05-08T07:46:14;14.93;;;6.88;;
22837;SDS011;11585;51.450;-0.240;2023-05-08T07:52:02;11.73;;;6.10;;
22837;SDS011;11585;51.450;-0.240;2023-05-08T07:54:31;16.05;;;5.90;;
22837;SDS011;11585;51.450;-0.240;2023-05-08T07:56:57;9.57;;;6.05;;
22837;SDS011;11585;51.450;-0.240;2023-05-08T07:59:23;10.85;;;5.43;;
22837;SDS011;11585;51.450;-0.240;2023-05-08T08:01:48;13.35;;;5.85;;
22837;SDS011;11585;51.450;-0.240;2023-05-08T08:04:14;8.48;;;5.05;;
22837;SDS011;11585;51.450;-0.240;2023-05-08T08:06:40;13.00;;;5.05;;
22837;SDS011;11585;51.450;-0.240;2023-05-08T08:11:50;8.60;;;4.70;;
22837;SDS011;11585;51.450;-0.240;2023-05-08T08:14:16;9.88;;;4.78;;
22837;SDS011;11585;51.450;-0.240;2023-05-08T08:16:41;8.63;;;4.75;;
22837;SDS011;11585;51.450;-0.240;2023-05-08T08:22:10;13.07;;;5.45;;
22837;SDS011;11585;51.450;-0.240;2023-05-08T08:24:36;7.13;;;3.95;;
22837;SDS011;11585;51.450;-0.240;2023-05-08T08:27:01;11.57;;;5.00;;
22837;SDS011;11585;51.450;-0.240;2023-05-08T08:32:15;9.35;;;4.57;;
22837;SDS011;11585;51.450;-0.240;2023-05-08T08:34:40;8.20;;;4.95;;
22837;SDS011;11585;51.450;-0.240;2023-05-08T08:37:06;9.55;;;4.60;;
22837;SDS011;11585;51.450;-0.240;2023-05-08T08:42:36;11.98;;;6.50;;
22837;SDS011;11585;51.450;-0.240;2023-05-08T08:45:02;8.35;;;4.90;;
22837;SDS011;11585;51.450;-0.240;2023-05-08T08:47:28;13.18;;;5.35;;
22837;SDS011;11585;51.450;-0.240;2023-05-08T08:55:10;20.10;;;6.75;;
22837;SDS011;11585;51.450;-0.240;2023-05-08T08:57:44;14.20;;;5.13;;
22837;SDS011;11585;51.450;-0.240;2023-05-08T09:00:14;17.00;;;5.57;;
22837;SDS011;11585;51.450;-0.240;2023-05-08T09:02:41;12.38;;;5.07;;
22837;SDS011;11585;51.450;-0.240;2023-05-08T09:05:07;9.35;;;4.70;;
22837;SDS011;11585;51.450;-0.240;2023-05-08T09:07:33;9.43;;;5.00;;
22837;SDS011;11585;51.450;-0.240;2023-05-08T09:13:04;10.13;;;4.15;;
22837;SDS011;11585;51.450;-0.240;2023-05-08T09:15:31;7.30;;;4.25;;
22837;SDS011;11585;51.450;-0.240;2023-05-08T09:20:42;10.05;;;3.55;;
22837;SDS011;11585;51.450;-0.240;2023-05-08T09:23:08;8.65;;;3.70;;
22837;SDS011;11585;51.450;-0.240;2023-05-08T09:25:47;13.05;;;4.40;;
22837;SDS011;11585;51.450;-0.240;2023-05-08T09:28:22;8.80;;;3.90;;
22837;SDS011;11585;51.450;-0.240;2023-05-08T09:30:53;13.73;;;3.38;;
22837;SDS011;11585;51.450;-0.240;2023-05-08T09:33:21;8.15;;;3.50;;
22837;SDS011;11585;51.450;-0.240;2023-05-08T09:35:51;6.10;;;3.10;;
22837;SDS011;11585;51.450;-0.240;2023-05-08T09:41:13;11.68;;;3.33;;
22837;SDS011;11585;51.450;-0.240;2023-05-08T09:43:41;8.98;;;3.00;;
22837;SDS011;11585;51.450;-0.240;2023-05-08T09:46:20;8.98;;;3.05;;
22837;SDS011;11585;51.450;-0.240;2023-05-08T09:48:49;6.32;;;3.20;;
22837;SDS011;11585;51.450;-0.240;2023-05-08T09:51:26;11.20;;;2.97;;
22837;SDS011;11585;51.450;-0.240;2023-05-08T09:53:53;12.65;;;3.10;;
22837;SDS011;11585;51.450;-0.240;2023-05-08T09:56:30;9.30;;;2.67;;
22837;SDS011;11585;51.450;-0.240;2023-05-08T09:59:21;4.60;;;2.83;;
22837;SDS011;11585;51.450;-0.240;2023-05-08T10:01:56;9.70;;;2.85;;
22837;SDS011;11585;51.450;-0.240;2023-05-08T10:04:35;7.65;;;2.85;;
22837;SDS011;11585;51.450;-0.240;2023-05-08T10:07:01;6.68;;;2.72;;
22837;SDS011;11585;51.450;-0.240;2023-05-08T10:09:28;6.93;;;2.50;;
22837;SDS011;11585;51.450;-0.240;2023-05-08T10:11:54;4.03;;;2.25;;
22837;SDS011;11585;51.450;-0.240;2023-05-08T10:14:20;11.40;;;2.90;;
22837;SDS011;11585;51.450;-0.240;2023-05-08T10:16:49;8.80;;;3.00;;
22837;SDS011;11585;51.450;-0.240;2023-05-08T10:19:23;8.55;;;2.92;;
22837;SDS011;11585;51.450;-0.240;2023-05-08T10:21:54;8.07;;;3.10;;
22837;SDS011;11585;51.450;-0.240;2023-05-08T10:24:29;12.85;;;2.95;;
22837;SDS011;11585;51.450;-0.240;2023-05-08T10:27:10;7.07;;;2.60;;
22837;SDS011;11585;51.450;-0.240;2023-05-08T10:29:51;5.05;;;2.60;;
22837;SDS011;11585;51.450;-0.240;2023-05-08T10:32:19;7.47;;;2.60;;
22837;SDS011;11585;51.450;-0.240;2023-05-08T10:34:46;7.10;;;2.53;;
22837;SDS011;11585;51.450;-0.240;2023-05-08T10:37:16;10.48;;;2.35;;
22837;SDS011;11585;51.450;-0.240;2023-05-08T10:39:48;5.13;;;2.20;;
22837;SDS011;11585;51.450;-0.240;2023-05-08T10:42:16;7.35;;;2.10;;
22837;SDS011;11585;51.450;-0.240;2023-05-08T10:44:45;8.60;;;2.35;;
22837;SDS011;11585;51.450;-0.240;2023-05-08T10:49:50;14.43;;;2.30;;
22837;SDS011;11585;51.450;-0.240;2023-05-08T10:52:34;9.73;;;2.75;;
22837;SDS011;11585;51.450;-0.240;2023-05-08T10:55:15;15.63;;;2.72;;
22837;SDS011;11585;51.450;-0.240;2023-05-08T10:58:01;9.88;;;1.92;;
22837;SDS011;11585;51.450;-0.240;2023-05-08T11:01:16;7.43;;;2.47;;
22837;SDS011;11585;51.450;-0.240;2023-05-08T11:03:21;6.45;;;2.10;;
22837;SDS011;11585;51.450;-0.240;2023-05-08T11:05:49;7.63;;;2.53;;
22837;SDS011;11585;51.450;-0.240;2023-05-08T11:08:22;5.50;;;2.17;;
22837;SDS011;11585;51.450;-0.240;2023-05-08T11:10:57;6.47;;;2.42;;
22837;SDS011;11585;51.450;-0.240;2023-05-08T11:13:37;7.60;;;2.17;;
22837;SDS011;11585;51.450;-0.240;2023-05-08T11:16:06;8.43;;;1.83;;
22837;SDS011;11585;51.450;-0.240;2023-05-08T11:18:35;4.35;;;2.13;;
22837;SDS011;11585;51.450;-0.240;2023-05-08T11:21:02;7.20;;;2.42;;
22837;SDS011;11585;51.450;-0.240;2023-05-08T11:23:30;5.55;;;2.08;;
22837;SDS011;11585;51.450;-0.240;2023-05-08T11:25:58;10.05;;;3.90;;
22837;SDS011;11585;51.450;-0.240;2023-05-08T11:28:38;7.82;;;2.38;;
22837;SDS011;11585;51.450;-0.240;2023-05-08T11:31:06;5.25;;;2.75;;
22837;SDS011;11585;51.450;-0.240;2023-05-08T11:33:35;9.35;;;2.30;;
22837;SDS011;11585;51.450;-0.240;2023-05-08T11:36:17;10.20;;;1.92;;
22837;SDS011;11585;51.450;-0.240;2023-05-08T11:41:31;4.80;;;1.80;;
22837;SDS011;11585;51.450;-0.240;2023-05-08T11:46:42;10.38;;;1.95;;
22837;SDS011;11585;51.450;-0.240;2023-05-08T11:52:00;5.55;;;1.77;;
22837;SDS011;11585;51.450;-0.240;2023-05-08T11:54:28;8.03;;;2.40;;
22837;SDS011;11585;51.450;-0.240;2023-05-08T11:56:55;7.68;;;2.33;;
22837;SDS011;11585;51.450;-0.240;2023-05-08T11:59:21;6.03;;;2.35;;
22837;SDS011;11585;51.450;-0.240;2023-05-08T12:01:52;6.00;;;2.30;;
22837;SDS011;11585;51.450;-0.240;2023-05-08T12:04:18;6.13;;;1.95;;
22837;SDS011;11585;51.450;-0.240;2023-05-08T12:06:43;3.58;;;1.73;;
22837;SDS011;11585;51.450;-0.240;2023-05-08T12:09:14;3.80;;;2.00;;
22837;SDS011;11585;51.450;-0.240;2023-05-08T12:11:42;5.43;;;2.15;;
22837;SDS011;11585;51.450;-0.240;2023-05-08T12:14:09;5.68;;;1.80;;
22837;SDS011;11585;51.450;-0.240;2023-05-08T12:16:41;6.10;;;1.92;;
22837;SDS011;11585;51.450;-0.240;2023-05-08T12:19:10;6.28;;;1.90;;
22837;SDS011;11585;51.450;-0.240;2023-05-08T12:21:37;5.03;;;1.65;;
22837;SDS011;11585;51.450;-0.240;2023-05-08T12:24:07;4.60;;;1.98;;
22837;SDS011;11585;51.450;-0.240;2023-05-08T12:26:41;3.33;;;1.70;;
22837;SDS011;11585;51.450;-0.240;2023-05-08T12:29:07;4.68;;;1.55;;
22837;SDS011;11585;51.450;-0.240;2023-05-08T12:31:33;4.03;;;1.50;;
22837;SDS011;11585;51.450;-0.240;2023-05-08T12:34:00;6.03;;;1.35;;
22837;SDS011;11585;51.450;-0.240;2023-05-08T12:36:27;13.27;;;2.20;;
22837;SDS011;11585;51.450;-0.240;2023-05-08T12:41:47;8.18;;;1.60;;
22837;SDS011;11585;51.450;-0.240;2023-05-08T12:44:22;3.65;;;1.40;;
22837;SDS011;11585;51.450;-0.240;2023-05-08T12:46:52;6.00;;;1.70;;
22837;SDS011;11585;51.450;-0.240;2023-05-08T12:52:06;5.40;;;1.42;;
22837;SDS011;11585;51.450;-0.240;2023-05-08T12:54:33;4.68;;;1.50;;
22837;SDS011;11585;51.450;-0.240;2023-05-08T12:57:00;2.38;;;1.40;;
22837;SDS011;11585;51.450;-0.240;2023-05-08T12:59:32;2.38;;;1.30;;
22837;SDS011;11585;51.450;-0.240;2023-05-08T13:01:58;5.10;;;1.70;;
22837;SDS011;11585;51.450;-0.240;2023-05-08T13:04:23;4.70;;;2.80;;
22837;SDS011;11585;51.450;-0.240;2023-05-08T13:06:55;3.03;;;2.05;;
22837;SDS011;11585;51.450;-0.240;2023-05-08T13:12:19;5.07;;;1.70;;
22837;SDS011;11585;51.450;-0.240;2023-05-08T13:14:45;5.43;;;2.00;;
22837;SDS011;11585;51.450;-0.240;2023-05-08T13:17:15;3.28;;;2.08;;
22837;SDS011;11585;51.450;-0.240;2023-05-08T13:19:42;4.32;;;1.70;;
22837;SDS011;11585;51.450;-0.240;2023-05-08T13:22:07;7.05;;;1.80;;
22837;SDS011;11585;51.450;-0.240;2023-05-08T13:24:33;2.53;;;1.80;;
22837;SDS011;11585;51.450;-0.240;2023-05-08T13:26:58;2.85;;;1.55;;
22837;SDS011;11585;51.450;-0.240;2023-05-08T13:32:09;5.70;;;1.70;;
22837;SDS011;11585;51.450;-0.240;2023-05-08T13:34:35;2.45;;;1.50;;
22837;SDS011;11585;51.450;-0.240;2023-05-08T13:37:01;3.58;;;1.83;;
22837;SDS011;11585;51.450;-0.240;2023-05-08T13:42:30;4.30;;;1.80;;
22837;SDS011;11585;51.450;-0.240;2023-05-08T13:44:55;2.47;;;1.48;;
22837;SDS011;11585;51.450;-0.240;2023-05-08T13:47:21;6.70;;;1.20;;
22837;SDS011;11585;51.450;-0.240;2023-05-08T13:52:31;4.78;;;1.70;;
22837;SDS011;11585;51.450;-0.240;2023-05-08T13:54:57;3.45;;;1.70;;
22837;SDS011;11585;51.450;-0.240;2023-05-08T13:57:22;3.35;;;1.40;;
22837;SDS011;11585;51.450;-0.240;2023-05-08T14:02:36;4.82;;;1.60;;
22837;SDS011;11585;51.450;-0.240;2023-05-08T14:05:01;5.45;;;1.40;;
22837;SDS011;11585;51.450;-0.240;2023-05-08T14:07:27;4.43;;;1.67;;
22837;SDS011;11585;51.450;-0.240;2023-05-08T14:09:56;3.88;;;1.42;;
22837;SDS011;11585;51.450;-0.240;2023-05-08T14:12:21;6.47;;;1.50;;
22837;SDS011;11585;51.450;-0.240;2023-05-08T14:14:47;4.70;;;1.83;;
22837;SDS011;11585;51.450;-0.240;2023-05-08T14:17:13;2.33;;;1.20;;
22837;SDS011;11585;51.450;-0.240;2023-05-08T14:19:40;5.20;;;1.55;;
22837;SDS011;11585;51.450;-0.240;2023-05-08T14:22:06;4.75;;;1.42;;
22837;SDS011;11585;51.450;-0.240;2023-05-08T14:24:31;4.93;;;1.52;;
22837;SDS011;11585;51.450;-0.240;2023-05-08T14:26:57;3.95;;;1.52;;
22837;SDS011;11585;51.450;-0.240;2023-05-08T14:32:17;3.10;;;1.40;;
22837;SDS011;11585;51.450;-0.240;2023-05-08T14:34:43;1.55;;;1.30;;
22837;SDS011;11585;51.450;-0.240;2023-05-08T14:37:14;4.50;;;1.48;;
22837;SDS011;11585;51.450;-0.240;2023-05-08T14:42:28;4.70;;;1.15;;
22837;SDS011;11585;51.450;-0.240;2023-05-08T14:44:53;2.95;;;1.40;;
22837;SDS011;11585;51.450;-0.240;2023-05-08T14:47:19;4.60;;;1.55;;
22837;SDS011;11585;51.450;-0.240;2023-05-08T14:49:50;3.70;;;1.50;;
22837;SDS011;11585;51.450;-0.240;2023-05-08T14:52:17;4.22;;;1.65;;
22837;SDS011;11585;51.450;-0.240;2023-05-08T14:54:43;4.18;;;1.50;;
22837;SDS011;11585;51.450;-0.240;2023-05-08T14:57:10;4.07;;;1.60;;
22837;SDS011;11585;51.450;-0.240;2023-05-08T14:59:37;3.97;;;1.52;;
22837;SDS011;11585;51.450;-0.240;2023-05-08T15:02:02;5.53;;;1.40;;
22837;SDS011;11585;51.450;-0.240;2023-05-08T15:04:28;4.85;;;2.97;;
22837;SDS011;11585;51.450;-0.240;2023-05-08T15:06:54;5.45;;;1.90;;
22837;SDS011;11585;51.450;-0.240;2023-05-08T15:09:22;7.10;;;2.90;;
22837;SDS011;11585;51.450;-0.240;2023-05-08T15:11:48;7.85;;;2.75;;
22837;SDS011;11585;51.450;-0.240;2023-05-08T15:14:16;7.35;;;3.10;;
22837;SDS011;11585;51.450;-0.240;2023-05-08T15:16:42;8.38;;;3.28;;
22837;SDS011;11585;51.450;-0.240;2023-05-08T15:19:08;7.47;;;3.17;;
22837;SDS011;11585;51.450;-0.240;2023-05-08T15:21:33;8.90;;;3.08;;
22837;SDS011;11585;51.450;-0.240;2023-05-08T15:23:59;5.57;;;2.15;;
22837;SDS011;11585;51.450;-0.240;2023-05-08T15:26:25;5.38;;;2.35;;
22837;SDS011;11585;51.450;-0.240;2023-05-08T15:28:50;3.53;;;2.63;;
22837;SDS011;11585;51.450;-0.240;2023-05-08T15:31:16;3.67;;;1.88;;
22837;SDS011;11585;51.450;-0.240;2023-05-08T15:33:42;5.63;;;2.20;;
22837;SDS011;11585;51.450;-0.240;2023-05-08T15:36:12;5.03;;;2.22;;
22837;SDS011;11585;51.450;-0.240;2023-05-08T15:38:38;3.97;;;2.45;;
22837;SDS011;11585;51.450;-0.240;2023-05-08T15:41:04;6.90;;;3.10;;
22837;SDS011;11585;51.450;-0.240;2023-05-08T15:43:30;6.95;;;3.03;;
22837;SDS011;11585;51.450;-0.240;2023-05-08T15:45:59;5.53;;;2.65;;
22837;SDS011;11585;51.450;-0.240;2023-05-08T15:48:26;5.15;;;2.85;;
22837;SDS011;11585;51.450;-0.240;2023-05-08T15:50:51;5.38;;;2.35;;
22837;SDS011;11585;51.450;-0.240;2023-05-08T15:53:17;5.85;;;2.65;;
22837;SDS011;11585;51.450;-0.240;2023-05-08T15:55:42;7.45;;;2.50;;
22837;SDS011;11585;51.450;-0.240;2023-05-08T15:58:08;5.38;;;2.30;;
22837;SDS011;11585;51.450;-0.240;2023-05-08T16:00:34;9.77;;;2.85;;
22837;SDS011;11585;51.450;-0.240;2023-05-08T16:02:59;9.20;;;3.15;;
22837;SDS011;11585;51.450;-0.240;2023-05-08T16:05:25;5.97;;;2.95;;
22837;SDS011;11585;51.450;-0.240;2023-05-08T16:07:51;6.25;;;2.92;;
22837;SDS011;11585;51.450;-0.240;2023-05-08T16:10:17;7.85;;;2.63;;
22837;SDS011;11585;51.450;-0.240;2023-05-08T16:12:46;7.50;;;2.70;;
22837;SDS011;11585;51.450;-0.240;2023-05-08T16:15:11;7.70;;;3.10;;
22837;SDS011;11585;51.450;-0.240;2023-05-08T16:17:37;6.07;;;2.72;;
22837;SDS011;11585;51.450;-0.240;2023-05-08T16:22:34;4.80;;;2.95;;
22837;SDS011;11585;51.450;-0.240;2023-05-08T16:25:00;4.80;;;2.88;;
22837;SDS011;11585;51.450;-0.240;2023-05-08T16:27:26;4.35;;;2.90;;
22837;SDS011;11585;51.450;-0.240;2023-05-08T16:29:52;8.65;;;2.83;;
22837;SDS011;11585;51.450;-0.240;2023-05-08T16:32:18;6.00;;;2.80;;
22837;SDS011;11585;51.450;-0.240;2023-05-08T16:34:43;7.05;;;3.08;;
22837;SDS011;11585;51.450;-0.240;2023-05-08T16:37:09;11.82;;;3.80;;
22837;SDS011;11585;51.450;-0.240;2023-05-08T16:42:23;5.45;;;2.88;;
22837;SDS011;11585;51.450;-0.240;2023-05-08T16:44:50;5.78;;;2.92;;
22837;SDS011;11585;51.450;-0.240;2023-05-08T16:47:16;5.60;;;3.00;;
22837;SDS011;11585;51.450;-0.240;2023-05-08T16:49:43;6.35;;;3.03;;
22837;SDS011;11585;51.450;-0.240;2023-05-08T16:52:09;5.03;;;3.22;;
22837;SDS011;11585;51.450;-0.240;2023-05-08T16:54:35;4.63;;;2.13;;
22837;SDS011;11585;51.450;-0.240;2023-05-08T16:57:00;5.15;;;2.55;;
22837;SDS011;11585;51.450;-0.240;2023-05-08T17:01:58;5.03;;;2.70;;
22837;SDS011;11585;51.450;-0.240;2023-05-08T17:04:24;5.03;;;2.90;;
22837;SDS011;11585;51.450;-0.240;2023-05-08T17:06:49;9.57;;;3.50;;
22837;SDS011;11585;51.450;-0.240;2023-05-08T17:09:15;6.03;;;2.80;;
22837;SDS011;11585;51.450;-0.240;2023-05-08T17:11:42;5.22;;;2.47;;
22837;SDS011;11585;51.450;-0.240;2023-05-08T17:14:08;7.45;;;3.53;;
22837;SDS011;11585;51.450;-0.240;2023-05-08T17:16:33;5.28;;;2.38;;
22837;SDS011;11585;51.450;-0.240;2023-05-08T17:21:32;7.22;;;2.92;;
22837;SDS011;11585;51.450;-0.240;2023-05-08T17:24:21;2.97;;;2.28;;
22837;SDS011;11585;51.450;-0.240;2023-05-08T17:26:47;5.65;;;2.80;;
22837;SDS011;11585;51.450;-0.240;2023-05-08T17:32:28;6.63;;;3.45;;
22837;SDS011;11585;51.450;-0.240;2023-05-08T17:34:57;8.43;;;3.80;;
22837;SDS011;11585;51.450;-0.240;2023-05-08T17:37:23;5.78;;;2.65;;
22837;SDS011;11585;51.450;-0.240;2023-05-08T17:39:48;4.93;;;2.33;;
22837;SDS011;11585;51.450;-0.240;2023-05-08T17:42:14;6.93;;;2.42;;
22837;SDS011;11585;51.450;-0.240;2023-05-08T17:44:39;9.07;;;2.90;;
22837;SDS011;11585;51.450;-0.240;2023-05-08T17:47:05;4.78;;;2.65;;
22837;SDS011;11585;51.450;-0.240;2023-05-08T17:49:31;5.65;;;3.05;;
22837;SDS011;11585;51.450;-0.240;2023-05-08T17:51:56;5.57;;;3.13;;
22837;SDS011;11585;51.450;-0.240;2023-05-08T17:54:22;4.97;;;2.67;;
22837;SDS011;11585;51.450;-0.240;2023-05-08T17:56:47;4.68;;;2.78;;
22837;SDS011;11585;51.450;-0.240;2023-05-08T17:59:13;5.65;;;3.38;;
22837;SDS011;11585;51.450;-0.240;2023-05-08T18:01:39;6.72;;;3.45;;
22837;SDS011;11585;51.450;-0.240;2023-05-08T18:04:04;5.55;;;3.17;;
22837;SDS011;11585;51.450;-0.240;2023-05-08T18:06:30;5.80;;;3.38;;